createdAt,value
2022-10-14T00:02:55.792Z,23.90
2022-10-14T00:06:04.695Z,24.30
2022-10-14T00:09:12.291Z,26.50
2022-10-14T00:12:18.379Z,28.00
2022-10-14T00:15:24.443Z,27.70
2022-10-14T00:18:30.679Z,29.10
2022-10-14T00:24:41.912Z,28.50
2022-10-14T00:27:47.976Z,27.20
2022-10-14T00:30:58.372Z,29.70
2022-10-14T00:34:04.630Z,29.40
2022-10-14T00:37:10.963Z,29.00
2022-10-14T00:43:22.836Z,27.80
2022-10-14T00:46:31.378Z,29.10
2022-10-14T00:49:42.204Z,28.20
2022-10-14T00:52:48.483Z,28.30
2022-10-14T00:55:54.690Z,29.90
2022-10-14T00:59:01.928Z,28.40
2022-10-14T01:02:08.343Z,28.90
2022-10-14T01:08:29.673Z,27.30
2022-10-14T01:11:41.927Z,26.00
2022-10-14T01:14:54.968Z,26.00
2022-10-14T01:18:12.827Z,25.30
2022-10-14T01:21:26.810Z,24.40
2022-10-14T01:24:45.356Z,24.90
2022-10-14T01:28:16.385Z,24.30
2022-10-14T01:31:25.000Z,23.30
2022-10-14T01:34:37.726Z,22.30
2022-10-14T01:37:51.130Z,21.50
2022-10-14T01:41:04.489Z,24.10
2022-10-14T01:44:13.402Z,24.30
2022-10-14T01:47:22.832Z,24.10
2022-10-14T01:50:32.702Z,22.70
2022-10-14T01:53:43.670Z,24.60
2022-10-14T01:56:51.782Z,24.30
2022-10-14T01:59:59.084Z,23.60
2022-10-14T02:03:05.386Z,22.50
2022-10-14T02:09:28.040Z,23.40
2022-10-14T02:12:46.152Z,22.40
2022-10-14T02:16:05.220Z,21.70
2022-10-14T02:19:25.937Z,24.00
2022-10-14T02:22:38.955Z,24.50
2022-10-14T02:25:48.074Z,21.90
2022-10-14T02:28:56.138Z,20.60
2022-10-14T02:32:03.386Z,20.80
2022-10-14T02:35:12.763Z,23.60
2022-10-14T02:38:20.450Z,22.80
2022-10-14T02:41:32.210Z,24.00
2022-10-14T02:44:38.479Z,23.70
2022-10-14T02:47:44.656Z,22.40
2022-10-14T02:50:50.847Z,23.50
2022-10-14T02:53:57.611Z,21.40
2022-10-14T02:57:03.828Z,21.30
2022-10-14T03:00:12.106Z,21.10
2022-10-14T03:03:18.377Z,20.10
2022-10-14T03:06:24.682Z,19.70
2022-10-14T03:12:35.956Z,19.90
2022-10-14T03:15:42.000Z,20.50
2022-10-14T03:18:48.127Z,21.20
2022-10-14T03:21:54.153Z,21.20
2022-10-14T03:25:00.284Z,22.30
2022-10-14T03:28:06.872Z,22.90
2022-10-14T03:31:12.992Z,22.00
2022-10-14T03:34:19.114Z,21.60
2022-10-14T03:37:25.331Z,22.20
2022-10-14T03:40:31.764Z,22.50
2022-10-14T03:43:37.894Z,21.30
2022-10-14T03:46:43.951Z,22.70
2022-10-14T03:49:49.955Z,22.20
2022-10-14T03:52:56.118Z,23.10
2022-10-14T03:56:02.226Z,21.30
2022-10-14T03:59:08.986Z,21.70
2022-10-14T04:02:15.076Z,21.10
2022-10-14T04:05:21.183Z,22.50
2022-10-14T04:08:27.436Z,22.80
2022-10-14T04:11:33.678Z,23.10
2022-10-14T04:14:39.837Z,22.50
2022-10-14T04:17:45.871Z,22.40
2022-10-14T04:20:51.999Z,24.70
2022-10-14T04:23:58.126Z,24.00
2022-10-14T04:27:04.277Z,23.20
2022-10-14T04:30:12.704Z,22.50
2022-10-14T04:33:18.865Z,24.80
2022-10-14T04:36:24.963Z,23.00
2022-10-14T04:39:31.291Z,22.90
2022-10-14T04:45:42.707Z,21.10
2022-10-14T04:48:50.365Z,21.10
2022-10-14T04:51:56.809Z,20.70
2022-10-14T04:55:03.498Z,22.30
2022-10-14T04:58:09.654Z,22.60
2022-10-14T05:01:15.821Z,20.60
2022-10-14T05:04:21.935Z,21.00
2022-10-14T05:07:28.241Z,21.50
2022-10-14T05:13:39.056Z,21.30
2022-10-14T05:19:49.833Z,20.80
2022-10-14T05:22:56.001Z,20.60
2022-10-14T05:26:02.137Z,18.70
2022-10-14T05:29:08.419Z,17.30
2022-10-14T05:35:34.032Z,21.60
2022-10-14T05:38:45.751Z,20.90
2022-10-14T05:44:56.592Z,21.50
2022-10-14T05:48:02.798Z,20.60
2022-10-14T05:51:09.218Z,21.90
2022-10-14T05:54:15.713Z,21.10
2022-10-14T05:57:21.817Z,20.90
2022-10-14T06:00:27.948Z,20.40
2022-10-14T06:03:34.359Z,20.30
2022-10-14T06:06:40.483Z,22.30
2022-10-14T06:09:46.532Z,24.50
2022-10-14T06:12:52.631Z,22.70
2022-10-14T06:15:58.768Z,21.90
2022-10-14T06:19:04.863Z,23.60
2022-10-14T06:22:11.020Z,22.20
2022-10-14T06:25:17.279Z,23.20
2022-10-14T06:31:32.127Z,20.60
2022-10-14T06:34:38.829Z,21.50
2022-10-14T06:37:47.984Z,20.90
2022-10-14T06:40:55.520Z,20.80
2022-10-14T06:44:01.672Z,21.30
2022-10-14T06:47:09.034Z,21.00
2022-10-14T06:50:15.632Z,20.60
2022-10-14T06:53:21.887Z,21.90
2022-10-14T06:56:28.156Z,22.30
2022-10-14T07:02:39.956Z,21.70
2022-10-14T07:05:46.110Z,21.90
2022-10-14T07:08:52.369Z,24.50
2022-10-14T07:15:05.147Z,23.60
2022-10-14T07:18:11.547Z,23.60
2022-10-14T07:24:22.191Z,21.20
2022-10-14T07:27:28.408Z,21.00
2022-10-14T07:30:34.611Z,19.60
2022-10-14T07:33:42.223Z,21.70
2022-10-14T07:36:48.462Z,22.40
2022-10-14T07:39:54.536Z,24.10
2022-10-14T07:43:00.642Z,25.30
2022-10-14T07:46:08.432Z,23.70
2022-10-14T07:49:16.942Z,23.00
2022-10-14T07:52:23.622Z,24.00
2022-10-14T07:55:29.728Z,25.20
2022-10-14T07:58:37.493Z,23.00
2022-10-14T08:01:47.022Z,22.60
2022-10-14T08:05:13.191Z,23.90
2022-10-14T08:08:24.408Z,26.90
2022-10-14T08:11:31.148Z,25.00
2022-10-14T08:14:37.303Z,22.50
2022-10-14T08:20:47.918Z,21.90
2022-10-14T08:23:55.074Z,19.20
2022-10-14T08:27:01.223Z,19.50
2022-10-14T08:33:17.627Z,18.80
2022-10-14T08:36:24.373Z,18.10
2022-10-14T08:39:30.600Z,18.10
2022-10-14T08:45:54.357Z,14.60
2022-10-14T08:49:08.922Z,14.10
2022-10-14T08:52:18.696Z,12.50
2022-10-14T08:55:34.497Z,13.20
2022-10-14T08:58:43.689Z,12.40
2022-10-14T09:01:58.388Z,12.20
2022-10-14T09:05:05.137Z,12.40
2022-10-14T09:08:17.086Z,11.40
2022-10-14T09:11:25.309Z,11.50
2022-10-14T09:14:37.652Z,12.50
2022-10-14T09:17:50.375Z,11.00
2022-10-14T09:20:57.965Z,12.00
2022-10-14T09:24:13.478Z,10.70
2022-10-14T09:27:22.087Z,10.80
2022-10-14T09:30:32.331Z,11.00
2022-10-14T09:33:42.259Z,10.90
2022-10-14T09:40:04.181Z,10.50
2022-10-14T09:43:18.271Z,10.90
2022-10-14T09:46:24.647Z,9.90
2022-10-14T09:49:40.465Z,10.10
2022-10-14T09:55:55.574Z,10.90
2022-10-14T09:59:03.099Z,12.30
2022-10-14T10:02:22.129Z,11.60
2022-10-14T10:05:30.613Z,11.40
2022-10-14T10:08:38.673Z,11.90
2022-10-14T10:11:44.752Z,12.00
2022-10-14T10:18:19.434Z,11.00
2022-10-14T10:21:29.893Z,11.80
2022-10-14T10:24:36.063Z,11.10
2022-10-14T10:27:45.922Z,10.90
2022-10-14T10:31:05.701Z,10.50
2022-10-14T10:34:34.797Z,9.70
2022-10-14T10:37:50.573Z,10.50
2022-10-14T10:44:36.447Z,10.90
2022-10-14T10:47:51.378Z,10.60
2022-10-14T10:51:01.943Z,10.20
2022-10-14T10:54:21.990Z,10.60
2022-10-14T10:57:42.843Z,10.80
2022-10-14T11:00:55.731Z,10.90
2022-10-14T11:04:18.272Z,10.20
2022-10-14T11:07:49.942Z,10.10
2022-10-14T11:11:19.887Z,10.40
2022-10-14T11:14:50.650Z,10.80
2022-10-14T11:18:03.554Z,10.30
2022-10-14T11:21:22.057Z,11.80
2022-10-14T11:24:37.422Z,10.50
2022-10-14T11:27:50.325Z,11.20
2022-10-14T11:31:02.518Z,10.30
2022-10-14T11:34:29.772Z,10.90
2022-10-14T11:37:48.524Z,10.10
2022-10-14T11:41:02.880Z,11.60
2022-10-14T11:44:16.725Z,11.90
2022-10-14T11:47:26.957Z,11.20
2022-10-14T11:50:39.418Z,11.70
2022-10-14T11:53:55.900Z,11.80
2022-10-14T11:57:06.162Z,11.20
2022-10-14T12:00:18.759Z,12.90
2022-10-14T12:03:37.773Z,12.00
2022-10-14T12:06:48.435Z,11.90
2022-10-14T12:10:00.081Z,12.90
2022-10-14T12:13:11.836Z,12.50
2022-10-14T12:16:21.327Z,14.00
2022-10-14T12:19:29.827Z,15.00
2022-10-14T12:22:36.879Z,14.00
2022-10-14T12:25:56.747Z,12.10
2022-10-14T12:29:04.169Z,11.70
2022-10-14T12:32:21.471Z,11.50
2022-10-14T12:35:51.920Z,11.90
2022-10-14T12:39:28.658Z,11.40
2022-10-14T12:42:36.611Z,11.60
2022-10-14T12:45:52.475Z,11.10
2022-10-14T12:48:59.850Z,13.00
2022-10-14T12:52:08.855Z,12.50
2022-10-14T12:55:20.105Z,11.70
2022-10-14T12:58:35.974Z,11.20
2022-10-14T13:01:45.919Z,11.90
2022-10-14T13:04:54.939Z,11.60
2022-10-14T13:08:27.006Z,11.50
2022-10-14T13:11:33.068Z,12.00
2022-10-14T13:14:59.735Z,12.40
2022-10-14T13:18:37.339Z,10.50
2022-10-14T13:21:56.184Z,11.20
2022-10-14T13:25:12.391Z,13.90
2022-10-14T13:28:28.967Z,18.30
2022-10-14T13:31:44.771Z,22.90
2022-10-14T13:38:03.353Z,21.30
2022-10-14T13:41:16.378Z,17.40
2022-10-14T13:44:23.104Z,19.50
2022-10-14T13:47:29.517Z,19.60
2022-10-14T13:50:39.465Z,21.30
2022-10-14T13:53:55.174Z,18.60
2022-10-14T13:57:42.722Z,18.70
2022-10-14T14:00:41.494Z,17.20
2022-10-14T14:03:52.183Z,16.00
2022-10-14T14:07:24.452Z,16.60
2022-10-14T14:10:26.568Z,16.30
2022-10-14T14:13:34.943Z,15.90
2022-10-14T14:16:49.582Z,18.10
2022-10-14T14:19:57.395Z,18.00
2022-10-14T14:23:04.978Z,17.50
2022-10-14T14:26:19.055Z,17.50
2022-10-14T14:29:29.379Z,17.50
2022-10-14T14:32:37.727Z,17.30
2022-10-14T14:35:51.850Z,17.30
2022-10-14T14:38:59.564Z,18.50
2022-10-14T14:42:05.714Z,17.90
2022-10-14T14:45:18.099Z,17.50
2022-10-14T14:48:24.604Z,16.70
2022-10-14T14:51:35.111Z,18.30
2022-10-14T14:54:47.312Z,16.70
2022-10-14T14:58:01.856Z,17.70
2022-10-14T15:01:08.816Z,17.80
2022-10-14T15:04:19.531Z,17.40
2022-10-14T15:07:27.215Z,17.50
2022-10-14T15:10:33.753Z,18.10
2022-10-14T15:13:53.415Z,18.00
2022-10-14T15:17:00.165Z,17.40
2022-10-14T15:20:30.036Z,17.40
2022-10-14T15:24:00.533Z,16.80
2022-10-14T15:27:34.990Z,17.90
2022-10-14T15:30:55.767Z,19.60
2022-10-14T15:34:02.090Z,20.00
2022-10-14T15:37:12.342Z,19.80
2022-10-14T15:40:21.067Z,19.10
2022-10-14T15:43:28.749Z,19.10
2022-10-14T15:46:54.061Z,18.60
2022-10-14T15:50:00.519Z,18.10
2022-10-14T15:53:06.620Z,20.00
2022-10-14T15:59:18.885Z,20.00
2022-10-14T16:02:30.384Z,20.60
2022-10-14T16:05:36.856Z,20.60
2022-10-14T16:08:43.558Z,18.30
2022-10-14T16:11:57.412Z,19.30
2022-10-14T16:18:14.936Z,24.70
2022-10-14T16:24:26.812Z,27.10
2022-10-14T16:27:32.875Z,25.20
2022-10-14T16:33:45.712Z,23.10
2022-10-14T16:36:52.755Z,27.90
2022-10-14T16:39:58.926Z,27.30
2022-10-14T16:43:05.050Z,24.80
2022-10-14T16:49:21.060Z,28.70
2022-10-14T16:52:27.177Z,32.10
2022-10-14T16:58:38.128Z,22.90
2022-10-14T17:01:44.489Z,37.40
2022-10-14T17:04:51.520Z,21.00
2022-10-14T17:07:57.650Z,27.20
2022-10-14T17:14:08.417Z,24.90
2022-10-14T17:17:14.797Z,25.30
2022-10-14T17:20:22.120Z,39.40
2022-10-14T17:23:29.520Z,56.70
2022-10-14T17:26:36.535Z,48.40
2022-10-14T17:29:42.683Z,147.10
2022-10-14T17:35:59.761Z,45.30
2022-10-14T17:39:06.170Z,34.00
2022-10-14T17:42:12.408Z,35.10
2022-10-14T17:45:19.727Z,33.60
2022-10-14T17:48:25.782Z,36.40
2022-10-14T17:54:36.446Z,31.30
2022-10-14T18:00:47.152Z,29.40
2022-10-14T18:06:58.679Z,70.10
2022-10-14T18:10:04.934Z,64.10
2022-10-14T18:13:11.111Z,32.60
2022-10-14T18:16:17.510Z,30.20
2022-10-14T18:19:23.639Z,24.00
2022-10-14T18:25:38.050Z,22.00
2022-10-14T18:28:45.912Z,22.90
2022-10-14T18:31:53.120Z,21.50
2022-10-14T18:34:59.211Z,29.40
2022-10-14T18:38:05.313Z,31.70
2022-10-14T18:41:14.445Z,37.30
2022-10-14T18:44:20.791Z,31.40
2022-10-14T18:47:27.210Z,34.50
2022-10-14T18:50:33.261Z,35.90
2022-10-14T18:53:41.676Z,36.60
2022-10-14T18:56:48.873Z,36.80
2022-10-14T18:59:55.033Z,39.60
2022-10-14T19:06:06.902Z,37.10
2022-10-14T19:09:13.986Z,37.80
2022-10-14T19:12:34.043Z,39.50
2022-10-14T19:15:45.408Z,36.70
2022-10-14T19:18:57.079Z,40.40
2022-10-14T19:22:03.456Z,40.20
2022-10-14T19:28:14.885Z,35.50
2022-10-14T19:31:25.043Z,34.20
2022-10-14T19:34:31.620Z,36.80
2022-10-14T19:37:37.939Z,48.60
2022-10-14T19:40:43.991Z,34.50
2022-10-14T19:43:50.303Z,40.50
2022-10-14T19:46:56.540Z,36.60
2022-10-14T19:50:02.626Z,33.70
2022-10-14T19:56:14.672Z,31.90
2022-10-14T19:59:21.397Z,32.50
2022-10-14T20:02:27.539Z,27.80
2022-10-14T20:08:39.396Z,25.70
2022-10-14T20:11:45.946Z,25.40
2022-10-14T20:14:52.015Z,29.50
2022-10-14T20:21:04.374Z,34.90
2022-10-14T20:24:10.884Z,27.30
2022-10-14T20:27:17.315Z,27.00
2022-10-14T20:30:23.552Z,25.40
2022-10-14T20:33:31.730Z,28.70
2022-10-14T20:36:37.924Z,34.30
2022-10-14T20:42:48.627Z,25.40
2022-10-14T20:45:56.344Z,31.40
2022-10-14T20:49:03.185Z,28.80
2022-10-14T20:52:10.102Z,24.30
2022-10-14T20:55:16.090Z,22.60
2022-10-14T20:58:23.219Z,21.50
2022-10-14T21:01:30.776Z,21.50
2022-10-14T21:04:37.013Z,21.60
2022-10-14T21:10:47.699Z,24.30
2022-10-14T21:13:55.828Z,23.30
2022-10-14T21:17:02.055Z,29.40
2022-10-14T21:20:09.891Z,30.40
2022-10-14T21:23:16.120Z,25.00
2022-10-14T21:26:22.151Z,24.50
2022-10-14T21:29:28.475Z,26.70
2022-10-14T21:32:34.686Z,26.70
2022-10-14T21:38:45.473Z,24.50
2022-10-14T21:41:52.026Z,38.70
2022-10-14T21:44:58.299Z,23.50
2022-10-14T21:48:04.565Z,24.70
2022-10-14T21:51:13.310Z,26.90
2022-10-14T21:54:19.298Z,88.40
2022-10-14T21:57:25.714Z,25.10
2022-10-14T22:00:32.140Z,43.50
2022-10-14T22:03:39.189Z,94.20
2022-10-14T22:06:45.384Z,39.80
2022-10-14T22:12:58.453Z,38.80
2022-10-14T22:16:05.039Z,20.80
2022-10-14T22:19:12.014Z,46.70
2022-10-14T22:22:18.050Z,23.80
2022-10-14T22:25:24.007Z,23.50
2022-10-14T22:28:30.834Z,27.70
2022-10-14T22:31:37.659Z,31.70
2022-10-14T22:34:45.312Z,30.90
2022-10-14T22:37:51.662Z,49.00
2022-10-14T22:41:01.507Z,31.10
2022-10-14T22:44:08.542Z,40.60
2022-10-14T22:47:14.609Z,63.20
2022-10-14T22:50:20.892Z,58.00
2022-10-14T22:56:32.942Z,42.00
2022-10-14T22:59:39.332Z,42.50
2022-10-14T23:02:46.481Z,33.60
2022-10-14T23:05:52.765Z,32.40
2022-10-14T23:09:00.464Z,32.00
2022-10-14T23:12:07.161Z,32.80
2022-10-14T23:15:13.845Z,30.60
2022-10-14T23:18:19.964Z,30.00
2022-10-14T23:24:31.650Z,28.80
2022-10-14T23:27:37.903Z,27.00
2022-10-14T23:30:44.181Z,25.90
2022-10-14T23:40:06.961Z,24.10
2022-10-14T23:43:13.028Z,22.40
2022-10-14T23:46:19.098Z,22.50
2022-10-14T23:49:26.439Z,20.50
2022-10-14T23:52:32.924Z,24.40
2022-10-14T23:58:43.467Z,26.80
